createdAt,value
2023-04-08T00:00:48.864Z,9.43
2023-04-08T00:03:16.157Z,9.55
2023-04-08T00:05:43.254Z,10.73
2023-04-08T00:08:10.308Z,10.13
2023-04-08T00:10:37.278Z,9.75
2023-04-08T00:13:04.197Z,9.57
2023-04-08T00:15:31.255Z,9.63
2023-04-08T00:17:58.457Z,10.98
2023-04-08T00:20:25.600Z,12.55
2023-04-08T00:22:52.614Z,11.68
2023-04-08T00:25:19.677Z,10.85
2023-04-08T00:27:46.859Z,9.55
2023-04-08T00:30:13.795Z,12.52
2023-04-08T00:32:40.902Z,10.88
2023-04-08T00:35:08.361Z,10.38
2023-04-08T00:37:35.318Z,11.80
2023-04-08T00:40:02.268Z,11.23
2023-04-08T00:42:31.000Z,11.85
2023-04-08T00:44:58.007Z,11.98
2023-04-08T00:47:25.895Z,11.93
2023-04-08T00:49:53.003Z,12.52
2023-04-08T00:52:19.965Z,12.35
2023-04-08T00:54:47.039Z,12.93
2023-04-08T00:57:14.131Z,11.55
2023-04-08T00:59:41.840Z,12.43
2023-04-08T01:02:26.003Z,11.68
2023-04-08T01:07:33.689Z,12.05
2023-04-08T01:10:13.349Z,13.38
2023-04-08T01:12:50.821Z,13.82
2023-04-08T01:15:18.270Z,14.48
2023-04-08T01:17:47.213Z,13.80
2023-04-08T01:20:16.557Z,13.57
2023-04-08T01:23:09.641Z,13.63
2023-04-08T01:25:38.348Z,14.05
2023-04-08T01:28:12.282Z,13.80
2023-04-08T01:30:41.035Z,13.73
2023-04-08T01:33:10.413Z,13.75
2023-04-08T01:35:38.034Z,16.55
2023-04-08T01:38:09.027Z,15.98
2023-04-08T01:40:38.046Z,15.90
2023-04-08T01:43:09.982Z,14.38
2023-04-08T01:45:37.011Z,14.95
2023-04-08T01:48:04.883Z,15.68
2023-04-08T01:50:33.909Z,15.88
2023-04-08T01:53:02.284Z,16.15
2023-04-08T01:55:30.053Z,16.98
2023-04-08T01:58:00.861Z,15.18
2023-04-08T02:00:29.993Z,16.48
2023-04-08T02:02:58.926Z,14.98
2023-04-08T02:05:26.106Z,16.73
2023-04-08T02:07:53.149Z,15.80
2023-04-08T02:10:20.296Z,17.17
2023-04-08T02:12:47.858Z,17.80
2023-04-08T02:15:15.749Z,16.63
2023-04-08T02:17:45.736Z,17.35
2023-04-08T02:20:19.977Z,17.15
2023-04-08T02:25:31.940Z,17.60
2023-04-08T02:28:03.134Z,17.80
2023-04-08T02:30:32.719Z,18.52
2023-04-08T02:33:03.396Z,18.13
2023-04-08T02:35:31.513Z,18.30
2023-04-08T02:37:58.614Z,20.27
2023-04-08T02:40:33.226Z,20.13
2023-04-08T02:43:00.518Z,21.13
2023-04-08T02:45:31.401Z,18.77
2023-04-08T02:48:00.438Z,19.88
2023-04-08T02:50:27.762Z,19.63
2023-04-08T02:52:54.671Z,19.23
2023-04-08T02:55:21.593Z,20.00
2023-04-08T02:57:49.204Z,19.60
2023-04-08T03:00:17.308Z,21.08
2023-04-08T03:02:44.661Z,21.17
2023-04-08T03:05:12.143Z,20.95
2023-04-08T03:07:39.258Z,21.55
2023-04-08T03:10:07.175Z,22.15
2023-04-08T03:12:34.194Z,19.50
2023-04-08T03:15:01.860Z,20.67
2023-04-08T03:17:29.084Z,22.45
2023-04-08T03:19:56.036Z,20.88
2023-04-08T03:22:24.411Z,22.40
2023-04-08T03:24:51.385Z,22.10
2023-04-08T03:27:18.424Z,23.02
2023-04-08T03:29:46.769Z,23.27
2023-04-08T03:32:14.045Z,20.15
2023-04-08T03:34:41.179Z,20.65
2023-04-08T03:37:08.228Z,22.33
2023-04-08T03:39:35.292Z,22.95
2023-04-08T03:42:03.225Z,23.33
2023-04-08T03:44:30.396Z,24.85
2023-04-08T03:46:57.558Z,24.13
2023-04-08T03:49:24.505Z,23.70
2023-04-08T03:51:51.557Z,23.30
2023-04-08T03:54:18.591Z,25.63
2023-04-08T03:56:45.660Z,25.55
2023-04-08T03:59:12.571Z,24.42
2023-04-08T04:01:41.710Z,24.70
2023-04-08T04:04:09.109Z,26.05
2023-04-08T04:06:36.421Z,24.20
2023-04-08T04:09:03.433Z,25.80
2023-04-08T04:11:30.452Z,24.13
2023-04-08T04:13:57.427Z,25.90
2023-04-08T04:16:24.508Z,26.67
2023-04-08T04:18:53.771Z,26.10
2023-04-08T04:21:21.071Z,26.35
2023-04-08T04:23:48.012Z,26.35
2023-04-08T04:26:15.444Z,26.10
2023-04-08T04:28:42.492Z,24.60
2023-04-08T04:31:18.071Z,27.60
2023-04-08T04:33:45.129Z,25.95
2023-04-08T04:36:12.178Z,27.45
2023-04-08T04:38:39.165Z,25.77
2023-04-08T04:41:06.483Z,26.65
2023-04-08T04:43:33.387Z,26.40
2023-04-08T04:46:00.879Z,27.48
2023-04-08T04:48:27.971Z,27.92
2023-04-08T04:50:56.590Z,26.27
2023-04-08T04:53:23.707Z,26.80
2023-04-08T04:55:51.506Z,26.80
2023-04-08T04:58:19.197Z,27.42
2023-04-08T05:00:49.069Z,27.67
2023-04-08T05:03:16.724Z,28.38
2023-04-08T05:05:44.124Z,26.90
2023-04-08T05:08:11.467Z,28.73
2023-04-08T05:10:40.811Z,29.38
2023-04-08T05:13:07.828Z,29.10
2023-04-08T05:15:34.806Z,29.55
2023-04-08T05:18:01.968Z,29.63
2023-04-08T05:20:29.055Z,28.13
2023-04-08T05:22:56.009Z,27.38
2023-04-08T05:25:22.978Z,27.67
2023-04-08T05:27:49.946Z,29.60
2023-04-08T05:30:16.812Z,29.38
2023-04-08T05:32:43.726Z,28.90
2023-04-08T05:35:11.047Z,26.55
2023-04-08T05:37:38.048Z,30.63
2023-04-08T05:40:05.555Z,29.98
2023-04-08T05:42:32.701Z,32.15
2023-04-08T05:44:59.646Z,31.20
2023-04-08T05:47:26.627Z,29.10
2023-04-08T05:49:53.747Z,27.65
2023-04-08T05:52:21.303Z,27.75
2023-04-08T05:54:48.281Z,27.48
2023-04-08T05:57:16.743Z,26.27
2023-04-08T05:59:43.662Z,25.88
2023-04-08T06:02:10.985Z,26.15
2023-04-08T06:04:38.080Z,27.23
2023-04-08T06:07:06.147Z,23.90
2023-04-08T06:09:36.709Z,24.67
2023-04-08T06:12:04.107Z,23.60
2023-04-08T06:14:31.091Z,21.70
2023-04-08T06:16:58.225Z,21.77
2023-04-08T06:19:25.340Z,22.35
2023-04-08T06:21:52.308Z,21.77
2023-04-08T06:24:19.210Z,20.25
2023-04-08T06:26:46.117Z,19.17
2023-04-08T06:29:13.165Z,18.27
2023-04-08T06:31:40.108Z,17.35
2023-04-08T06:34:07.193Z,16.88
2023-04-08T06:36:34.157Z,18.05
2023-04-08T06:39:01.079Z,17.15
2023-04-08T06:41:28.079Z,16.63
2023-04-08T06:43:55.069Z,17.30
2023-04-08T06:46:22.329Z,16.45
2023-04-08T06:48:49.480Z,16.58
2023-04-08T06:51:16.764Z,15.18
2023-04-08T06:53:43.750Z,15.52
2023-04-08T06:56:11.268Z,17.20
2023-04-08T06:58:38.869Z,13.70
2023-04-08T07:01:05.877Z,14.77
2023-04-08T07:03:32.970Z,14.90
2023-04-08T07:05:59.918Z,14.85
2023-04-08T07:08:27.339Z,13.65
2023-04-08T07:10:54.258Z,13.98
2023-04-08T07:13:21.173Z,14.65
2023-04-08T07:15:48.173Z,14.02
2023-04-08T07:18:15.644Z,14.32
2023-04-08T07:20:42.568Z,15.65
2023-04-08T07:23:09.499Z,15.75
2023-04-08T07:25:36.491Z,13.23
2023-04-08T07:28:03.672Z,12.93
2023-04-08T07:30:30.621Z,13.15
2023-04-08T07:33:00.568Z,12.88
2023-04-08T07:35:28.265Z,13.30
2023-04-08T07:37:55.481Z,13.02
2023-04-08T07:40:22.564Z,11.77
2023-04-08T07:42:49.868Z,12.65
2023-04-08T07:45:16.943Z,11.23
2023-04-08T07:47:44.713Z,12.13
2023-04-08T07:50:12.034Z,12.45
2023-04-08T07:52:39.052Z,11.68
2023-04-08T07:55:06.484Z,12.25
2023-04-08T07:57:33.701Z,12.32
2023-04-08T08:00:00.731Z,13.82
2023-04-08T08:02:27.838Z,12.25
2023-04-08T08:04:54.915Z,10.73
2023-04-08T08:07:21.964Z,11.68
2023-04-08T08:09:49.168Z,11.73
2023-04-08T08:12:16.137Z,12.75
2023-04-08T08:14:43.093Z,11.60
2023-04-08T08:17:10.031Z,12.73
2023-04-08T08:19:36.929Z,11.65
2023-04-08T08:22:03.918Z,11.70
2023-04-08T08:24:31.065Z,12.55
2023-04-08T08:26:58.572Z,13.30
2023-04-08T08:29:25.584Z,12.82
2023-04-08T08:31:52.584Z,13.27
2023-04-08T08:34:20.111Z,11.73
2023-04-08T08:36:47.037Z,13.50
2023-04-08T08:39:14.124Z,14.18
2023-04-08T08:41:42.383Z,15.75
2023-04-08T08:44:10.287Z,15.95
2023-04-08T08:46:37.227Z,16.67
2023-04-08T08:49:04.323Z,16.73
2023-04-08T08:51:32.854Z,19.25
2023-04-08T08:54:03.135Z,16.67
2023-04-08T08:56:30.374Z,16.88
2023-04-08T08:58:57.844Z,15.95
2023-04-08T09:01:39.109Z,14.60
2023-04-08T09:04:10.327Z,15.75
2023-04-08T09:06:38.570Z,14.85
2023-04-08T09:09:11.392Z,15.45
2023-04-08T09:11:40.867Z,14.43
2023-04-08T09:14:19.956Z,16.42
2023-04-08T09:19:16.373Z,13.45
2023-04-08T09:21:43.767Z,12.93
2023-04-08T09:24:28.927Z,12.88
2023-04-08T09:26:56.694Z,13.75
2023-04-08T09:29:27.644Z,12.98
2023-04-08T09:31:58.125Z,11.05
2023-04-08T09:34:27.481Z,11.25
2023-04-08T09:36:55.924Z,10.90
2023-04-08T09:39:23.279Z,10.73
2023-04-08T09:41:51.764Z,10.73
2023-04-08T09:44:21.082Z,11.63
2023-04-08T09:46:51.556Z,10.90
2023-04-08T09:49:43.551Z,10.23
2023-04-08T09:52:15.727Z,11.75
2023-04-08T09:54:51.679Z,11.02
2023-04-08T09:57:44.563Z,11.43
2023-04-08T10:00:13.765Z,9.65
2023-04-08T10:02:56.638Z,9.90
2023-04-08T10:05:25.225Z,9.85
2023-04-08T10:07:52.691Z,9.95
2023-04-08T10:10:20.888Z,9.68
2023-04-08T10:12:48.891Z,10.48
2023-04-08T10:15:32.481Z,12.27
2023-04-08T10:18:05.719Z,12.07
2023-04-08T10:20:38.905Z,12.55
2023-04-08T10:23:07.154Z,12.55
2023-04-08T10:25:38.957Z,14.63
2023-04-08T10:28:12.356Z,13.18
2023-04-08T10:30:40.258Z,15.15
2023-04-08T10:33:27.368Z,14.40
2023-04-08T10:36:17.788Z,14.27
2023-04-08T10:38:44.827Z,15.60
2023-04-08T10:41:21.524Z,14.20
2023-04-08T10:43:48.688Z,14.40
2023-04-08T10:46:17.346Z,13.82
2023-04-08T10:48:44.980Z,15.65
2023-04-08T10:51:12.203Z,15.55
2023-04-08T10:53:40.087Z,15.90
2023-04-08T10:56:08.458Z,15.18
2023-04-08T10:58:38.784Z,15.15
2023-04-08T11:01:07.624Z,15.15
2023-04-08T11:03:37.030Z,14.73
2023-04-08T11:06:04.922Z,15.52
2023-04-08T11:08:33.068Z,14.63
2023-04-08T11:11:04.233Z,14.15
2023-04-08T11:13:31.824Z,15.32
2023-04-08T11:16:03.013Z,13.80
2023-04-08T11:18:32.276Z,13.95
2023-04-08T11:21:00.590Z,16.60
2023-04-08T11:23:27.887Z,15.07
2023-04-08T11:25:55.634Z,15.85
2023-04-08T11:28:23.138Z,16.05
2023-04-08T11:30:50.477Z,17.85
2023-04-08T11:33:17.628Z,17.05
2023-04-08T11:35:44.952Z,18.13
2023-04-08T11:38:12.757Z,17.60
2023-04-08T11:40:39.927Z,17.17
2023-04-08T11:43:11.259Z,16.58
2023-04-08T11:45:40.051Z,18.02
2023-04-08T11:48:14.562Z,15.93
2023-04-08T11:50:42.292Z,14.85
2023-04-08T11:53:25.160Z,14.45
2023-04-08T11:55:52.550Z,14.68
2023-04-08T11:58:19.556Z,15.45
2023-04-08T12:00:46.725Z,15.25
2023-04-08T12:03:14.135Z,14.82
2023-04-08T12:05:42.748Z,14.90
2023-04-08T12:08:10.039Z,15.32
2023-04-08T12:10:37.012Z,15.25
2023-04-08T12:13:04.067Z,13.60
2023-04-08T12:15:31.083Z,16.75
2023-04-08T12:17:58.271Z,13.93
2023-04-08T12:20:25.504Z,16.23
2023-04-08T12:22:52.528Z,16.65
2023-04-08T12:25:19.542Z,15.60
2023-04-08T12:27:46.993Z,15.27
2023-04-08T12:30:15.414Z,14.38
2023-04-08T12:32:45.991Z,14.75
2023-04-08T12:35:13.275Z,16.65
2023-04-08T12:37:40.605Z,15.40
2023-04-08T12:40:08.309Z,18.27
2023-04-08T12:42:35.765Z,16.08
2023-04-08T12:45:02.684Z,16.60
2023-04-08T12:47:29.671Z,15.88
2023-04-08T12:49:56.647Z,15.88
2023-04-08T12:52:24.249Z,13.63
2023-04-08T12:54:51.203Z,14.43
2023-04-08T12:57:18.287Z,12.93
2023-04-08T12:59:45.238Z,14.00
2023-04-08T13:02:12.232Z,12.73
2023-04-08T13:04:39.376Z,15.10
2023-04-08T13:07:07.651Z,13.95
2023-04-08T13:09:34.851Z,12.90
2023-04-08T13:12:02.427Z,13.10
2023-04-08T13:14:29.513Z,12.00
2023-04-08T13:16:57.011Z,11.35
2023-04-08T13:19:23.915Z,13.63
2023-04-08T13:21:51.085Z,12.27
2023-04-08T13:24:18.305Z,11.55
2023-04-08T13:26:45.514Z,12.73
2023-04-08T13:29:12.434Z,11.70
2023-04-08T13:31:39.619Z,11.68
2023-04-08T13:34:06.643Z,11.77
2023-04-08T13:36:33.652Z,11.35
2023-04-08T13:39:00.509Z,12.48
2023-04-08T13:41:28.539Z,12.95
2023-04-08T13:43:56.612Z,13.00
2023-04-08T13:46:23.969Z,12.98
2023-04-08T13:48:51.384Z,12.40
2023-04-08T13:51:18.612Z,12.63
2023-04-08T13:53:45.721Z,13.35
2023-04-08T13:56:12.596Z,13.65
2023-04-08T13:58:39.619Z,13.85
2023-04-08T14:01:06.964Z,12.13
2023-04-08T14:03:33.970Z,13.45
2023-04-08T14:06:01.835Z,12.85
2023-04-08T14:08:29.071Z,12.27
2023-04-08T14:10:57.631Z,12.30
2023-04-08T14:13:24.659Z,12.63
2023-04-08T14:15:52.303Z,13.32
2023-04-08T14:18:19.552Z,12.35
2023-04-08T14:20:46.639Z,12.80
2023-04-08T14:23:13.723Z,12.27
2023-04-08T14:25:41.057Z,13.73
2023-04-08T14:28:08.317Z,12.85
2023-04-08T14:30:37.992Z,12.43
2023-04-08T14:33:07.768Z,11.57
2023-04-08T14:35:35.346Z,12.25
2023-04-08T14:38:02.325Z,11.65
2023-04-08T14:40:29.413Z,11.07
2023-04-08T14:42:56.449Z,11.63
2023-04-08T14:45:23.286Z,10.93
2023-04-08T14:47:50.402Z,12.57
2023-04-08T14:50:17.504Z,13.02
2023-04-08T14:52:49.157Z,13.20
2023-04-08T14:55:17.267Z,12.02
2023-04-08T14:57:44.223Z,12.93
2023-04-08T15:00:11.662Z,13.13
2023-04-08T15:02:38.712Z,12.55
2023-04-08T15:05:06.353Z,13.55
2023-04-08T15:07:33.370Z,13.10
2023-04-08T15:10:00.553Z,13.02
2023-04-08T15:12:27.689Z,13.32
2023-04-08T15:14:54.688Z,14.13
2023-04-08T15:17:21.726Z,15.38
2023-04-08T15:19:48.841Z,15.93
2023-04-08T15:22:16.113Z,15.35
2023-04-08T15:24:43.253Z,15.15
2023-04-08T15:27:10.346Z,16.52
2023-04-08T15:29:37.300Z,16.63
2023-04-08T15:32:04.261Z,18.67
2023-04-08T15:34:31.217Z,16.63
2023-04-08T15:36:58.510Z,17.73
2023-04-08T15:39:26.027Z,20.45
2023-04-08T15:41:53.230Z,18.88
2023-04-08T15:44:20.190Z,20.95
2023-04-08T15:46:47.186Z,20.73
2023-04-08T15:49:14.686Z,22.35
2023-04-08T15:51:44.514Z,22.42
2023-04-08T15:54:11.957Z,23.65
2023-04-08T15:56:39.011Z,22.30
2023-04-08T15:59:06.337Z,26.42
2023-04-08T16:01:33.520Z,26.17
2023-04-08T16:04:01.966Z,25.70
2023-04-08T16:06:28.988Z,29.73
2023-04-08T16:08:56.809Z,31.63
2023-04-08T16:11:25.235Z,33.90
2023-04-08T16:13:52.544Z,35.85
2023-04-08T16:16:20.078Z,35.35
2023-04-08T16:18:47.601Z,34.42
2023-04-08T16:21:14.945Z,37.72
2023-04-08T16:23:42.081Z,36.35
2023-04-08T16:26:09.220Z,36.35
2023-04-08T16:28:40.061Z,38.53
2023-04-08T16:31:07.603Z,38.45
2023-04-08T16:33:34.520Z,40.40
2023-04-08T16:36:04.202Z,42.95
2023-04-08T16:38:31.287Z,40.80
2023-04-08T16:40:58.807Z,42.10
2023-04-08T16:43:26.155Z,45.03
2023-04-08T16:45:53.673Z,43.70
2023-04-08T16:48:20.782Z,45.88
2023-04-08T16:50:47.737Z,46.53
2023-04-08T16:53:14.840Z,43.63
2023-04-08T16:55:41.723Z,45.20
2023-04-08T16:58:08.780Z,46.35
2023-04-08T17:00:36.401Z,48.17
2023-04-08T17:03:03.576Z,46.55
2023-04-08T17:05:31.019Z,49.00
2023-04-08T17:07:58.094Z,44.60
2023-04-08T17:10:25.311Z,45.08
2023-04-08T17:12:52.382Z,45.22
2023-04-08T17:15:19.447Z,45.75
2023-04-08T17:17:47.964Z,47.03
2023-04-08T17:20:16.214Z,44.40
2023-04-08T17:22:43.380Z,44.92
2023-04-08T17:25:10.855Z,45.17
2023-04-08T17:27:37.760Z,44.22
2023-04-08T17:30:05.225Z,48.13
2023-04-08T17:32:32.188Z,47.28
2023-04-08T17:34:59.212Z,46.17
2023-04-08T17:37:26.565Z,46.45
2023-04-08T17:39:53.500Z,48.20
2023-04-08T17:42:22.861Z,50.55
2023-04-08T17:44:49.983Z,49.50
2023-04-08T17:47:17.114Z,48.08
2023-04-08T17:49:44.083Z,50.55
2023-04-08T17:52:10.970Z,37.20
2023-04-08T17:54:38.010Z,30.80
2023-04-08T17:57:04.880Z,30.63
2023-04-08T17:59:31.881Z,27.58
2023-04-08T18:01:58.864Z,29.45
2023-04-08T18:04:26.078Z,28.40
2023-04-08T18:06:53.039Z,27.52
2023-04-08T18:09:20.053Z,28.25
2023-04-08T18:11:46.968Z,27.05
2023-04-08T18:14:13.889Z,27.42
2023-04-08T18:16:40.769Z,26.27
2023-04-08T18:19:07.879Z,30.27
2023-04-08T18:21:34.875Z,28.13
2023-04-08T18:24:01.971Z,27.05
2023-04-08T18:26:29.028Z,27.58
2023-04-08T18:28:55.986Z,26.90
2023-04-08T18:31:24.286Z,29.42
2023-04-08T18:33:51.638Z,29.42
2023-04-08T18:36:19.158Z,29.45
2023-04-08T18:38:46.278Z,30.90
2023-04-08T18:41:13.430Z,30.50
2023-04-08T18:43:41.067Z,29.00
2023-04-08T18:46:08.199Z,27.15
2023-04-08T18:48:35.781Z,29.38
2023-04-08T18:51:02.837Z,30.05
2023-04-08T18:53:29.993Z,28.35
2023-04-08T18:55:56.978Z,30.02
2023-04-08T18:58:23.999Z,30.15
2023-04-08T19:00:51.054Z,29.85
2023-04-08T19:03:18.030Z,28.60
2023-04-08T19:05:45.145Z,29.25
2023-04-08T19:08:12.111Z,32.00
2023-04-08T19:10:39.398Z,31.45
2023-04-08T19:13:06.334Z,33.65
2023-04-08T19:15:33.233Z,30.80
2023-04-08T19:18:00.654Z,31.65
2023-04-08T19:20:27.785Z,31.70
2023-04-08T19:22:55.674Z,33.45
2023-04-08T19:25:22.715Z,31.05
2023-04-08T19:27:49.977Z,30.50
2023-04-08T19:30:17.001Z,31.10
2023-04-08T19:32:44.085Z,31.60
2023-04-08T19:35:14.383Z,32.17
2023-04-08T19:37:41.470Z,35.33
2023-04-08T19:40:09.123Z,34.28
2023-04-08T19:42:37.354Z,33.10
2023-04-08T19:45:05.397Z,34.42
2023-04-08T19:47:33.098Z,32.85
2023-04-08T19:50:00.277Z,32.03
2023-04-08T19:52:27.338Z,32.08
2023-04-08T19:54:54.468Z,29.45
2023-04-08T19:57:21.643Z,33.53
2023-04-08T19:59:48.894Z,33.45
2023-04-08T20:02:16.379Z,32.97
2023-04-08T20:04:45.133Z,33.72
2023-04-08T20:07:13.068Z,36.20
2023-04-08T20:09:40.045Z,34.88
2023-04-08T20:12:07.439Z,36.38
2023-04-08T20:14:36.657Z,33.63
2023-04-08T20:17:04.535Z,36.95
2023-04-08T20:19:31.498Z,35.88
2023-04-08T20:21:58.620Z,36.50
2023-04-08T20:24:25.665Z,36.97
2023-04-08T20:26:52.799Z,37.85
2023-04-08T20:29:19.898Z,38.50
2023-04-08T20:31:47.393Z,38.25
2023-04-08T20:34:14.503Z,41.72
2023-04-08T20:36:41.481Z,40.05
2023-04-08T20:39:11.842Z,41.63
2023-04-08T20:41:39.228Z,43.28
2023-04-08T20:44:08.563Z,38.45
2023-04-08T20:46:35.962Z,41.10
2023-04-08T20:49:03.875Z,43.17
2023-04-08T20:51:33.817Z,47.17
2023-04-08T20:54:00.948Z,49.50
2023-04-08T20:56:28.125Z,47.63
2023-04-08T20:58:56.836Z,47.42
2023-04-08T21:01:26.115Z,48.72
2023-04-08T21:03:53.308Z,53.13
2023-04-08T21:06:21.390Z,52.67
2023-04-08T21:08:49.525Z,49.90
2023-04-08T21:11:17.154Z,49.58
2023-04-08T21:13:45.960Z,49.80
2023-04-08T21:16:14.330Z,52.00
2023-04-08T21:18:41.734Z,53.22
2023-04-08T21:21:11.257Z,56.78
2023-04-08T21:23:38.302Z,55.53
2023-04-08T21:26:11.783Z,63.55
2023-04-08T21:28:40.082Z,60.53
2023-04-08T21:31:13.813Z,67.60
2023-04-08T21:33:40.947Z,62.53
2023-04-08T21:36:08.076Z,64.88
2023-04-08T21:38:35.313Z,64.47
2023-04-08T21:41:02.394Z,64.25
2023-04-08T21:43:29.514Z,66.28
2023-04-08T21:45:56.730Z,65.57
2023-04-08T21:48:23.740Z,65.10
2023-04-08T21:50:50.869Z,67.30
2023-04-08T21:53:17.913Z,66.63
2023-04-08T21:55:44.814Z,68.97
2023-04-08T21:58:12.575Z,67.05
2023-04-08T22:00:39.635Z,65.78
2023-04-08T22:03:07.615Z,64.93
2023-04-08T22:05:34.871Z,61.00
2023-04-08T22:08:02.279Z,63.38
2023-04-08T22:10:29.550Z,55.88
2023-04-08T22:12:56.658Z,66.38
2023-04-08T22:15:23.627Z,58.83
2023-04-08T22:17:50.612Z,58.67
2023-04-08T22:20:17.706Z,58.80
2023-04-08T22:22:44.611Z,59.13
2023-04-08T22:25:11.711Z,59.53
2023-04-08T22:27:38.742Z,59.25
2023-04-08T22:30:06.402Z,63.22
2023-04-08T22:32:33.312Z,62.92
2023-04-08T22:35:00.533Z,57.05
2023-04-08T22:37:27.656Z,59.65
2023-04-08T22:39:54.608Z,57.88
2023-04-08T22:42:21.702Z,57.42
2023-04-08T22:44:48.635Z,56.47
2023-04-08T22:47:15.803Z,55.50
2023-04-08T22:49:43.009Z,55.92
2023-04-08T22:52:10.161Z,52.42
2023-04-08T22:54:37.310Z,51.13
2023-04-08T22:57:04.351Z,51.40
2023-04-08T22:59:31.342Z,52.17
2023-04-08T23:01:58.346Z,52.03
2023-04-08T23:04:25.710Z,54.97
2023-04-08T23:06:52.863Z,57.33
2023-04-08T23:09:20.788Z,58.92
2023-04-08T23:11:47.787Z,57.17
2023-04-08T23:14:14.847Z,59.83
2023-04-08T23:16:41.896Z,61.80
2023-04-08T23:19:08.849Z,60.33
2023-04-08T23:21:36.450Z,64.13
2023-04-08T23:24:03.441Z,61.25
2023-04-08T23:26:30.376Z,66.07
2023-04-08T23:28:58.560Z,60.40
2023-04-08T23:31:25.586Z,66.88
2023-04-08T23:33:52.594Z,62.85
2023-04-08T23:36:19.581Z,61.53
2023-04-08T23:38:46.578Z,60.22
2023-04-08T23:41:13.603Z,60.55
2023-04-08T23:43:40.678Z,60.33
2023-04-08T23:46:07.748Z,58.90
2023-04-08T23:48:34.820Z,55.45
2023-04-08T23:51:01.874Z,55.60
2023-04-08T23:53:28.936Z,59.35
2023-04-08T23:56:04.484Z,52.38
2023-04-08T23:58:31.545Z,51.17
